Ahvaz, Iran

8:44 PM +0330 on November 13, 2019 (GMT +0330)
Ahvaz

Weather History for OIAW - November, 2019

Change the Weather History Date:

Wednesday, November 13, 2019

  Actual Average Record
Temperature  
Mean Temperature 68 °F -  
Max Temperature 84 °F - - ()
Min Temperature 51 °F - - ()
Cooling Degree Days 2    
Growing Degree Days 18 (Base 50)    
Moisture  
Dew Point 42 °F    
Average Humidity 38    
Maximum Humidity 76    
Minimum Humidity 10    
Precipitation  
Precipitation 0.00 in - - ()
Sea Level Pressure  
Sea Level Pressure 29.97 in    
Wind  
Wind Speed 2 mph ()    
Max Wind Speed 5 mph    
Max Gust Speed -    
Visibility 3.1 miles    
Events      
T = Trace of Precipitation, MM = Missing Value Source: Averaged Metar Reports

Daily Weather History Graph

Daily Weather History Graph

Search for Another Location

Airport or City:

Astronomy

Nov. 13, 2019 Rise Set
Actual Time 6:40 AM +0330 5:17 PM +0330
Civil Twilight 6:14 AM +0330 5:43 PM +0330
Nautical Twilight 5:45 AM +0330 6:12 PM +0330
Astronomical Twilight 5:16 AM +0330 6:41 PM +0330
Moon 6:07 PM +0330 7:10 AM +0330
Length of Visible Light 11h 28m
Length of Day
10h 37m
Full, 99% of the Moon is Illuminated
Today
Full
Nov 20
Last Quarter
Nov 26
New
Dec 4
First Quarter
Dec 12
Full

Hourly Weather History & Observations

Time (+0330) Temp. Dew Point Humidity Pressure Visibility Wind Dir Wind Speed Gust Speed Precip Events Conditions
12:00 AM 60.8 °F 41.0 °F 48% 29.98 in 5.0 mi SSE 2.3 mph - N/A   Unknown
12:20 AM 59.0 °F 42.8 °F 55% 29.98 in 5.0 mi ENE 2.3 mph - N/A   Unknown
12:30 AM 58 °F 42 °F 45% 29.99 in 5 mi ENE 2.2 mph - -   Haze
12:30 AM 59.0 °F 42.8 °F 55% 29.98 in 5.0 mi ENE 2.3 mph - N/A   Unknown
1:23 AM 55.4 °F 42.8 °F 63% 29.98 in 4.3 mi South 2.3 mph - N/A   Unknown
1:30 AM 55.4 °F 42.8 °F 63% 29.98 in 4.3 mi South 2.3 mph - N/A   Unknown
2:21 AM 55.4 °F 44.6 °F 67% 29.95 in 4.3 mi SSW 2.3 mph - N/A   Unknown
2:30 AM 55.4 °F 44.6 °F 67% 29.95 in 4.3 mi SSW 2.3 mph - N/A   Unknown
3:20 AM 55.4 °F 44.6 °F 67% 29.95 in 4.3 mi SW 2.3 mph - N/A   Unknown
3:30 AM 55 °F 45 °F 59% 29.98 in 4 mi SW 2.2 mph - -   Haze
3:30 AM 55.4 °F 44.6 °F 67% 29.95 in 4.3 mi SW 2.3 mph - N/A   Unknown
4:23 AM 55.4 °F 46.4 °F 72% 29.95 in 4.3 mi WSW 2.3 mph - N/A   Unknown
4:30 AM 55.4 °F 46.4 °F 72% 29.95 in 4.3 mi WSW 2.3 mph - N/A   Unknown
5:30 AM 53.6 °F 44.6 °F 72% 29.95 in 3.7 mi West 2.3 mph - N/A   Unknown
6:30 AM 53 °F 45 °F 67% 29.98 in 4 mi Calm Calm - -   Haze
6:30 AM 53.6 °F 44.6 °F 72% 29.95 in 3.7 mi Calm Calm - N/A   Unknown
7:00 AM 51.8 °F 44.6 °F 76% 29.95 in 3.7 mi ENE 2.3 mph - N/A   Unknown
7:30 AM 55.4 °F 44.6 °F 67% 29.98 in 3.7 mi NE 2.3 mph - N/A   Unknown
7:52 AM 57.2 °F 42.8 °F 59% 29.98 in 1.6 mi NE 2.3 mph - N/A   Haze
8:00 AM 57.2 °F 42.8 °F 59% 29.98 in 1.6 mi NE 2.3 mph - N/A   Haze
8:23 AM 60.8 °F 42.8 °F 52% 30.01 in 1.6 mi Calm Calm - N/A   Smoke
8:30 AM 60.8 °F 42.8 °F 52% 30.01 in 1.6 mi Calm Calm - N/A   Smoke
8:54 AM 66.2 °F 41.0 °F 40% 30.01 in 1.6 mi Calm Calm - N/A   Smoke
9:00 AM 66.2 °F 41.0 °F 40% 30.01 in 1.6 mi Calm Calm - N/A   Smoke
9:21 AM 68.0 °F 39.2 °F 35% 30.01 in 2.2 mi East 2.3 mph - N/A   Smoke
9:30 AM 69 °F 40 °F 23% 30.03 in 2 mi East 2.2 mph - -   Smoke
9:30 AM 68.0 °F 39.2 °F 35% 30.01 in 2.2 mi East 2.3 mph - N/A   Smoke
9:54 AM 71.6 °F 39.2 °F 31% 30.01 in 2.5 mi ESE 4.6 mph - N/A   Smoke
10:00 AM 71.6 °F 39.2 °F 31% 30.01 in 2.5 mi ESE 4.6 mph - N/A   Smoke
10:21 AM 75.2 °F 39.2 °F 27% 30.01 in 2.5 mi East 4.6 mph - N/A   Smoke
10:30 AM 75.2 °F 39.2 °F 27% 30.01 in 2.5 mi East 4.6 mph - N/A   Smoke
10:57 AM 77.0 °F 41.0 °F 28% 30.01 in 2.5 mi ESE 2.3 mph - N/A   Smoke
11:00 AM 77.0 °F 41.0 °F 28% 30.01 in 2.5 mi ESE 2.3 mph - N/A   Smoke
11:25 AM 80.6 °F 41.0 °F 24% 30.01 in 2.5 mi SSW 2.3 mph - N/A   Smoke
11:30 AM 80.6 °F 41.0 °F 24% 30.01 in 2.5 mi ESE 2.3 mph - N/A   Smoke
11:59 AM 82.4 °F 44.6 °F 26% 29.98 in 3.1 mi Calm Calm - N/A   Smoke
12:00 PM 82.4 °F 44.6 °F 26% 29.98 in 3.1 mi Calm Calm - N/A   Smoke
12:24 PM 82.4 °F 42.8 °F 25% 29.98 in 3.1 mi South 4.6 mph - N/A   Smoke
12:30 PM 83 °F 42 °F 14% 29.99 in 3 mi South 4.5 mph - -   Smoke
12:30 PM 82.4 °F 42.8 °F 25% 29.98 in 3.1 mi South 4.6 mph - N/A   Smoke
12:54 PM 84.2 °F 42.8 °F 23% 29.98 in 3.1 mi SW 4.6 mph - N/A   Smoke
1:00 PM 84.2 °F 42.8 °F 23% 29.98 in 3.1 mi SW 4.6 mph - N/A   Smoke
1:25 PM 84.2 °F 42.8 °F 23% 29.95 in 2.5 mi SSW 4.6 mph - N/A   Smoke
1:30 PM 84.2 °F 42.8 °F 23% 29.95 in 2.5 mi SSW 4.6 mph - N/A   Smoke
1:54 PM 84.2 °F 33.8 °F 16% 29.95 in 3.1 mi NNW 4.6 mph - N/A   Smoke
2:00 PM 84.2 °F 33.8 °F 16% 29.95 in 3.1 mi NNW 4.6 mph - N/A   Smoke
2:23 PM 84.2 °F 37.4 °F 19% 29.95 in 3.1 mi SW 2.3 mph - N/A   Smoke
2:30 PM 84.2 °F 37.4 °F 19% 29.95 in 3.1 mi SW 2.3 mph - N/A   Smoke
2:54 PM 86.0 °F 39.2 °F 19% 29.95 in 3.1 mi NNW 4.6 mph - N/A   Smoke
3:00 PM 86.0 °F 39.2 °F 19% 29.95 in 3.1 mi NNW 4.6 mph - N/A   Smoke
3:28 PM 84.2 °F 37.4 °F 19% 29.95 in 3.1 mi West 2.3 mph - N/A   Haze
3:30 PM 85 °F 37 °F 10% 29.97 in 3 mi West 2.2 mph - -   Haze
3:30 PM 84.2 °F 37.4 °F 19% 29.95 in 3.1 mi West 2.3 mph - N/A   Haze
3:53 PM 84.2 °F 35.6 °F 18% 29.95 in 3.1 mi West 4.6 mph - N/A   Haze
4:21 PM 82.4 °F 39.2 °F 21% 29.95 in 3.1 mi NW 2.3 mph - N/A   Haze
4:30 PM 82.4 °F 39.2 °F 21% 29.95 in 3.1 mi NW 2.3 mph - N/A   Haze
4:53 PM 80.6 °F 35.6 °F 20% 29.95 in 3.1 mi NW 2.3 mph - N/A   Haze
5:00 PM 80.6 °F 35.6 °F 20% 29.95 in 3.1 mi NW 2.3 mph - N/A   Haze
5:28 PM 73.4 °F 42.8 °F 33% 29.95 in 3.1 mi NNE 2.3 mph - N/A   Haze
5:30 PM 73.4 °F 42.8 °F 33% 29.95 in 3.1 mi NNE 2.3 mph - N/A   Haze
5:56 PM 69.8 °F 42.8 °F 38% 29.95 in 3.1 mi West 2.3 mph - N/A   Haze
6:00 PM 69.8 °F 42.8 °F 38% 29.95 in 3.1 mi West 2.3 mph - N/A   Haze
6:26 PM 71.6 °F 44.6 °F 38% 29.95 in 3.1 mi West 4.6 mph - N/A   Haze
6:30 PM 71 °F 44 °F 27% 29.98 in 3 mi West 4.5 mph - -   Haze
6:30 PM 71.6 °F 44.6 °F 38% 29.95 in 3.1 mi West 4.6 mph - N/A   Haze
6:52 PM 69.8 °F 44.6 °F 40% 29.98 in 3.1 mi West 2.3 mph - N/A   Haze
7:00 PM 69.8 °F 44.6 °F 40% 29.98 in 3.1 mi West 2.3 mph - N/A   Haze
7:25 PM 71.6 °F 42.8 °F 35% 29.98 in 3.1 mi WNW 4.6 mph - N/A   Haze
7:30 PM 71.6 °F 42.8 °F 35% 29.98 in 3.1 mi WNW 4.6 mph - N/A   Haze
7:52 PM 71.6 °F 42.8 °F 35% 29.98 in 3.1 mi WSW 4.6 mph - N/A   Haze
8:00 PM 71.6 °F 42.8 °F 35% 29.98 in 3.1 mi WSW 4.6 mph - N/A   Haze
8:24 PM 68.0 °F 44.6 °F 43% 29.98 in 3.1 mi West 2.3 mph - N/A   Haze
8:30 PM 68.0 °F 44.6 °F 43% 29.98 in 3.1 mi West 2.3 mph - N/A   Haze